EGBJ/GLO METAR and TAF weather

Enter ICAO airport designator
Station Type Date Time Source
EGBJ METAR 2021/09/25 12:50 UTC NOAA

EGBJ 251250Z 24003KT 9999 FEW017 SCT029 22/15 Q1013


Station Type Date Time Source
EGBJ Decoded METAR 2021/09/25 12:50 UTC NOAA

Staverton Private , United Kingdom (EGBJ) 51-54N 002-10W
Sep 25, 2021 - 08:50 AM EDT / 2021.09.25 1250 UTC
Wind: from the WSW (240 degrees) at 3 MPH (3 KT):0
Visibility: greater than 7 mile(s):0
Sky conditions: partly cloudy
Temperature: 71 F (22 C)
Dew Point: 59 F (15 C)
Relative Humidity: 64%
Pressure (altimeter): 29.91 in. Hg (1013 hPa)
ob: EGBJ 251250Z 24003KT 9999 FEW017 SCT029 22/15 Q1013
cycle: 13

Station Type Date Time Source
EGBJ TAF UTC NOAA

Error!

Example: see airport list